createdAt,value
2018-11-21T00:00:55.636Z,15.23
2018-11-21T00:03:27.778Z,14.60
2018-11-21T00:05:57.009Z,14.00
2018-11-21T00:08:26.212Z,15.23
2018-11-21T00:10:55.984Z,15.10
2018-11-21T00:13:28.509Z,15.23
2018-11-21T00:15:57.882Z,13.33
2018-11-21T00:18:27.902Z,14.80
2018-11-21T00:20:57.215Z,13.60
2018-11-21T00:23:26.512Z,15.87
2018-11-21T00:26:00.933Z,14.07
2018-11-21T00:28:30.208Z,15.10
2018-11-21T00:30:59.382Z,14.17
2018-11-21T00:33:32.084Z,14.03
2018-11-21T00:36:01.307Z,14.40
2018-11-21T00:38:32.250Z,15.37
2018-11-21T00:41:02.143Z,14.37
2018-11-21T00:43:31.357Z,14.70
2018-11-21T00:46:00.550Z,13.63
2018-11-21T00:48:33.126Z,15.27
2018-11-21T00:51:02.735Z,15.13
2018-11-21T00:53:34.805Z,14.60
2018-11-21T00:56:04.206Z,14.53
2018-11-21T00:58:33.806Z,15.80
2018-11-21T01:01:03.247Z,15.00
2018-11-21T01:03:32.736Z,16.83
2018-11-21T01:06:01.933Z,17.00
2018-11-21T01:08:31.228Z,15.30
2018-11-21T01:11:00.579Z,16.40
2018-11-21T01:13:31.190Z,16.30
2018-11-21T01:16:08.073Z,15.33
2018-11-21T01:18:36.487Z,15.80
2018-11-21T01:21:07.042Z,15.37
2018-11-21T01:23:37.252Z,16.53
2018-11-21T01:26:07.453Z,15.93
2018-11-21T01:28:37.009Z,15.53
2018-11-21T01:31:06.395Z,16.53
2018-11-21T01:33:35.555Z,17.37
2018-11-21T01:36:08.735Z,16.93
2018-11-21T01:38:37.454Z,16.87
2018-11-21T01:41:12.317Z,15.70
2018-11-21T01:43:41.686Z,16.20
2018-11-21T01:46:10.932Z,18.60
2018-11-21T01:48:40.123Z,16.73
2018-11-21T01:51:09.496Z,16.50
2018-11-21T01:53:41.827Z,16.00
2018-11-21T01:56:10.985Z,16.13
2018-11-21T01:58:43.223Z,17.90
2018-11-21T02:01:12.350Z,14.90
2018-11-21T02:03:41.568Z,17.80
2018-11-21T02:06:10.997Z,17.87
2018-11-21T02:08:40.570Z,17.40
2018-11-21T02:11:09.873Z,17.57
2018-11-21T02:13:39.194Z,18.13
2018-11-21T02:16:09.109Z,15.33
2018-11-21T02:18:39.139Z,16.33
2018-11-21T02:21:09.801Z,16.60
2018-11-21T02:23:39.398Z,17.10
2018-11-21T02:26:08.748Z,15.67
2018-11-21T02:28:38.050Z,16.70
2018-11-21T02:31:07.662Z,17.17
2018-11-21T02:33:36.853Z,18.53
2018-11-21T02:36:06.461Z,17.60
2018-11-21T02:38:35.777Z,19.10
2018-11-21T02:41:06.395Z,19.90
2018-11-21T02:43:35.988Z,18.63
2018-11-21T02:46:05.522Z,17.50
2018-11-21T02:48:34.902Z,19.20
2018-11-21T02:51:04.231Z,19.20
2018-11-21T02:53:33.416Z,18.37
2018-11-21T02:56:05.413Z,18.67
2018-11-21T02:58:35.495Z,18.77
2018-11-21T03:01:04.856Z,18.10
2018-11-21T03:03:34.014Z,20.27
2018-11-21T03:06:03.282Z,18.43
2018-11-21T03:08:32.811Z,19.37
2018-11-21T03:11:02.223Z,19.57
2018-11-21T03:13:31.714Z,19.53
2018-11-21T03:16:00.904Z,19.63
2018-11-21T03:18:30.099Z,19.93
2018-11-21T03:20:59.794Z,20.33
2018-11-21T03:23:29.541Z,20.27
2018-11-21T03:25:58.741Z,18.17
2018-11-21T03:28:28.109Z,20.83
2018-11-21T03:30:57.284Z,20.53
2018-11-21T03:33:26.824Z,19.73
2018-11-21T03:35:56.197Z,19.80
2018-11-21T03:38:25.465Z,20.00
2018-11-21T03:40:54.754Z,18.80
2018-11-21T03:43:24.503Z,21.03
2018-11-21T03:45:53.654Z,20.20
2018-11-21T03:48:22.844Z,19.80
2018-11-21T03:50:52.269Z,20.10
2018-11-21T03:53:21.449Z,21.50
2018-11-21T03:55:50.748Z,20.60
2018-11-21T03:58:20.758Z,18.80
2018-11-21T04:00:49.997Z,21.13
2018-11-21T04:03:19.183Z,18.90
2018-11-21T04:05:48.571Z,19.97
2018-11-21T04:08:18.087Z,19.67
2018-11-21T04:10:47.273Z,20.00
2018-11-21T04:13:16.712Z,20.33
2018-11-21T04:15:45.885Z,19.17
2018-11-21T04:18:15.164Z,19.80
2018-11-21T04:20:44.498Z,20.10
2018-11-21T04:23:14.197Z,19.37
2018-11-21T04:25:43.498Z,21.03
2018-11-21T04:28:13.094Z,21.03
2018-11-21T04:30:42.296Z,19.00
2018-11-21T04:33:11.384Z,19.70
2018-11-21T04:35:40.886Z,19.10
2018-11-21T04:38:10.107Z,21.33
2018-11-21T04:40:39.614Z,20.70
2018-11-21T04:43:09.404Z,19.93
2018-11-21T04:45:38.572Z,20.43
2018-11-21T04:48:08.424Z,20.17
2018-11-21T04:50:37.820Z,19.60
2018-11-21T04:53:07.098Z,18.90
2018-11-21T04:55:36.729Z,19.67
2018-11-21T04:58:09.516Z,20.40
2018-11-21T05:00:38.632Z,20.10
2018-11-21T05:03:07.810Z,19.37
2018-11-21T05:05:37.089Z,19.50
2018-11-21T05:08:09.403Z,20.37
2018-11-21T05:10:38.702Z,20.73
2018-11-21T05:13:08.298Z,19.20
2018-11-21T05:15:37.730Z,21.23
2018-11-21T05:18:07.315Z,19.40
2018-11-21T05:20:36.780Z,20.30
2018-11-21T05:23:07.219Z,18.90
2018-11-21T05:25:36.466Z,19.83
2018-11-21T05:28:06.231Z,21.00
2018-11-21T05:30:35.459Z,20.50
2018-11-21T05:33:07.319Z,20.80
2018-11-21T05:35:37.020Z,19.50
2018-11-21T05:38:09.305Z,18.50
2018-11-21T05:40:40.432Z,18.20
2018-11-21T05:43:07.879Z,18.47
2018-11-21T05:45:37.136Z,19.47
2018-11-21T05:48:06.672Z,19.83
2018-11-21T05:50:39.968Z,19.13
2018-11-21T05:53:09.893Z,18.23
2018-11-21T05:55:39.555Z,19.60
2018-11-21T05:58:11.690Z,20.00
2018-11-21T06:00:40.938Z,18.43
2018-11-21T06:03:10.224Z,18.00
2018-11-21T06:05:40.205Z,19.10
2018-11-21T06:08:12.328Z,17.07
2018-11-21T06:10:43.224Z,17.83
2018-11-21T06:13:12.937Z,17.40
2018-11-21T06:15:42.005Z,19.30
2018-11-21T06:18:12.200Z,19.20
2018-11-21T06:20:45.261Z,17.77
2018-11-21T06:23:14.998Z,19.77
2018-11-21T06:25:47.643Z,18.60
2018-11-21T06:28:14.763Z,18.43
2018-11-21T06:30:44.085Z,17.30
2018-11-21T06:33:13.449Z,19.10
2018-11-21T06:35:42.782Z,19.17
2018-11-21T06:38:13.126Z,18.57
2018-11-21T06:40:42.992Z,18.93
2018-11-21T06:43:12.837Z,21.30
2018-11-21T06:45:43.792Z,20.33
2018-11-21T06:48:11.545Z,20.97
2018-11-21T06:50:42.480Z,20.80
2018-11-21T06:53:11.665Z,20.63
2018-11-21T06:55:41.190Z,21.40
2018-11-21T06:58:10.362Z,19.07
2018-11-21T07:00:39.601Z,19.20
2018-11-21T07:03:08.790Z,20.97
2018-11-21T07:05:38.156Z,20.20
2018-11-21T07:08:09.838Z,21.60
2018-11-21T07:10:39.171Z,20.93
2018-11-21T07:13:11.217Z,22.13
2018-11-21T07:15:39.893Z,22.07
2018-11-21T07:18:10.198Z,20.53
2018-11-21T07:20:42.972Z,20.70
2018-11-21T07:23:12.293Z,19.37
2018-11-21T07:25:41.402Z,20.80
2018-11-21T07:28:13.091Z,22.13
2018-11-21T07:30:40.416Z,20.27
2018-11-21T07:33:10.641Z,21.90
2018-11-21T07:35:41.235Z,22.40
2018-11-21T07:38:10.375Z,20.60
2018-11-21T07:40:39.669Z,21.63
2018-11-21T07:43:12.127Z,21.67
2018-11-21T07:45:43.093Z,21.77
2018-11-21T07:48:12.245Z,21.87
2018-11-21T07:50:44.662Z,21.50
2018-11-21T07:53:13.897Z,21.17
2018-11-21T07:55:43.138Z,20.70
2018-11-21T07:58:23.601Z,22.00
2018-11-21T08:01:01.999Z,21.67
2018-11-21T08:03:35.725Z,20.37
2018-11-21T08:06:10.680Z,20.00
2018-11-21T08:09:04.637Z,20.27
2018-11-21T08:11:52.879Z,20.17
2018-11-21T08:14:35.773Z,20.23
2018-11-21T08:17:30.997Z,19.80
2018-11-21T08:20:19.670Z,19.67
2018-11-21T08:23:10.776Z,20.17
2018-11-21T08:25:57.863Z,19.03
2018-11-21T08:28:33.064Z,17.93
2018-11-21T08:31:02.422Z,19.10
2018-11-21T08:33:34.132Z,17.97
2018-11-21T08:36:01.337Z,18.13
2018-11-21T08:38:30.531Z,17.40
2018-11-21T08:40:59.575Z,16.77
2018-11-21T08:43:28.758Z,16.00
2018-11-21T08:45:59.923Z,17.67
2018-11-21T08:48:27.510Z,17.17
2018-11-21T08:50:56.967Z,17.20
2018-11-21T08:53:26.453Z,16.73
2018-11-21T08:55:55.566Z,16.87
2018-11-21T08:58:27.243Z,14.73
2018-11-21T09:00:56.631Z,16.50
2018-11-21T09:03:25.694Z,16.07
2018-11-21T09:05:57.233Z,15.60
2018-11-21T09:08:26.926Z,15.03
2018-11-21T09:10:56.089Z,15.40
2018-11-21T09:13:25.485Z,13.47
2018-11-21T09:15:54.715Z,14.57
2018-11-21T09:18:29.732Z,13.10
2018-11-21T09:20:59.827Z,14.10
2018-11-21T09:23:28.942Z,13.43
2018-11-21T09:25:58.154Z,13.97
2018-11-21T09:28:27.435Z,13.93
2018-11-21T09:30:56.774Z,14.80
2018-11-21T09:33:26.371Z,13.50
2018-11-21T09:36:00.854Z,16.17
2018-11-21T09:38:29.960Z,13.83
2018-11-21T09:40:59.068Z,14.87
2018-11-21T09:43:28.365Z,15.13
2018-11-21T09:45:59.423Z,14.10
2018-11-21T09:48:28.480Z,16.67
2018-11-21T09:50:57.910Z,14.80
2018-11-21T09:53:29.369Z,15.90
2018-11-21T09:55:58.910Z,14.60
2018-11-21T09:58:30.086Z,14.67
2018-11-21T10:01:34.111Z,15.50
2018-11-21T10:04:03.417Z,15.53
2018-11-21T10:06:35.210Z,14.87
2018-11-21T10:09:13.733Z,13.70
2018-11-21T10:11:51.991Z,14.20
2018-11-21T10:14:17.394Z,15.43
2018-11-21T10:16:49.393Z,14.27
2018-11-21T10:19:21.016Z,14.70
2018-11-21T10:21:51.373Z,14.37
2018-11-21T10:24:23.403Z,14.60
2018-11-21T10:26:52.529Z,13.30
2018-11-21T10:29:21.736Z,15.40
2018-11-21T10:31:50.960Z,14.70
2018-11-21T10:34:20.238Z,14.20
2018-11-21T10:36:49.290Z,14.80
2018-11-21T10:39:18.669Z,15.90
2018-11-21T10:41:47.702Z,14.83
2018-11-21T10:44:17.356Z,17.00
2018-11-21T10:46:46.447Z,16.10
2018-11-21T10:49:15.338Z,15.90
2018-11-21T10:51:44.399Z,16.40
2018-11-21T10:54:13.745Z,15.53
2018-11-21T10:56:43.493Z,18.00
2018-11-21T10:59:12.561Z,17.50
2018-11-21T11:01:59.504Z,18.27
2018-11-21T11:04:38.465Z,17.40
2018-11-21T11:07:41.574Z,16.97
2018-11-21T11:10:32.120Z,16.70
2018-11-21T11:13:26.763Z,17.37
2018-11-21T11:16:13.816Z,20.47
2018-11-21T11:19:09.131Z,19.53
2018-11-21T11:22:11.227Z,19.37
2018-11-21T11:25:11.470Z,20.00
2018-11-21T11:27:59.593Z,18.30
2018-11-21T11:30:49.375Z,17.90
2018-11-21T11:33:49.913Z,19.10
2018-11-21T11:36:37.954Z,18.13
2018-11-21T11:39:38.800Z,19.20
2018-11-21T11:42:27.228Z,19.27
2018-11-21T11:45:18.523Z,19.87
2018-11-21T11:48:05.642Z,20.50
2018-11-21T11:50:53.465Z,18.90
2018-11-21T11:53:34.774Z,20.43
